createdAt,value
2019-05-21T00:00:29.220Z,100751.47
2019-05-21T00:01:05.149Z,100746.86
2019-05-21T00:01:41.059Z,100742.47
2019-05-21T00:02:16.964Z,100748.84
2019-05-21T00:02:52.881Z,100748.84
2019-05-21T00:03:28.690Z,100747.20
2019-05-21T00:04:04.557Z,100747.98
2019-05-21T00:04:40.426Z,100740.92
2019-05-21T00:05:16.330Z,100746.28
2019-05-21T00:05:52.212Z,100755.64
2019-05-21T00:06:28.113Z,100755.64
2019-05-21T00:07:03.951Z,100749.17
2019-05-21T00:07:39.922Z,100754.22
2019-05-21T00:08:15.763Z,100757.95
2019-05-21T00:08:51.630Z,100754.67
2019-05-21T00:09:27.493Z,100754.67
2019-05-21T00:10:03.412Z,100764.82
2019-05-21T00:10:39.421Z,100765.63
2019-05-21T00:11:15.296Z,100773.39
2019-05-21T00:11:51.182Z,100770.38
2019-05-21T00:12:27.037Z,100767.12
2019-05-21T00:13:02.998Z,100771.63
2019-05-21T00:13:38.920Z,100766.69
2019-05-21T00:14:14.806Z,100766.14
2019-05-21T00:14:50.690Z,100759.09
2019-05-21T00:15:26.699Z,100759.09
2019-05-21T00:16:02.574Z,100777.59
2019-05-21T00:16:38.662Z,100774.56
2019-05-21T00:17:14.608Z,100767.30
2019-05-21T00:17:52.093Z,100775.62
2019-05-21T00:18:28.099Z,100775.58
2019-05-21T00:19:04.007Z,100778.50
2019-05-21T00:19:39.921Z,100778.50
2019-05-21T00:20:16.260Z,100783.06
2019-05-21T00:20:52.181Z,100779.27
2019-05-21T00:21:28.103Z,100781.12
2019-05-21T00:22:04.579Z,100783.27
2019-05-21T00:22:40.565Z,100788.02
2019-05-21T00:23:16.434Z,100795.27
2019-05-21T00:23:52.334Z,100795.27
2019-05-21T00:24:28.367Z,100785.56
2019-05-21T00:25:04.282Z,100782.31
2019-05-21T00:25:40.916Z,100796.28
2019-05-21T00:26:17.102Z,100796.28
2019-05-21T00:26:52.949Z,100795.44
2019-05-21T00:27:28.983Z,100791.86
2019-05-21T00:28:40.412Z,100791.86
2019-05-21T00:29:50.453Z,100796.61
2019-05-21T00:31:00.697Z,100796.61
2019-05-21T00:32:11.068Z,100803.45
2019-05-21T00:33:21.398Z,100803.45
2019-05-21T00:34:43.657Z,100800.75
2019-05-21T00:35:49.620Z,100791.45
2019-05-21T00:37:01.928Z,100796.02
2019-05-21T00:38:11.995Z,100796.02
2019-05-21T00:39:22.423Z,100794.35
2019-05-21T00:40:32.787Z,100799.37
2019-05-21T00:41:43.250Z,100803.64
2019-05-21T00:42:28.906Z,100794.17
2019-05-21T00:43:04.863Z,100794.17
2019-05-21T00:43:52.864Z,100796.03
2019-05-21T00:44:29.101Z,100796.03
2019-05-21T00:45:05.358Z,100790.83
2019-05-21T00:45:41.373Z,100802.64
2019-05-21T00:46:17.275Z,100802.64
2019-05-21T00:46:53.226Z,100805.05
2019-05-21T00:47:29.084Z,100806.88
2019-05-21T00:48:05.894Z,100803.83
2019-05-21T00:48:41.954Z,100803.83
2019-05-21T00:49:17.942Z,100804.03
2019-05-21T00:49:53.925Z,100791.31
2019-05-21T00:50:29.858Z,100798.23
2019-05-21T00:51:05.791Z,100793.85
2019-05-21T00:51:41.790Z,100796.76
2019-05-21T00:52:17.703Z,100794.25
2019-05-21T00:52:53.590Z,100790.14
2019-05-21T00:53:29.598Z,100790.59
2019-05-21T00:54:05.491Z,100789.19
2019-05-21T00:54:41.368Z,100789.42
2019-05-21T00:55:17.257Z,100791.22
2019-05-21T00:55:53.276Z,100796.83
2019-05-21T00:56:29.182Z,100796.72
2019-05-21T00:57:05.058Z,100795.05
2019-05-21T00:57:40.959Z,100791.48
2019-05-21T00:58:16.997Z,100793.01
2019-05-21T00:58:52.921Z,100790.50
2019-05-21T00:59:28.887Z,100792.84
2019-05-21T01:00:04.947Z,100794.89
2019-05-21T01:00:40.821Z,100793.98
2019-05-21T01:01:16.667Z,100794.94
2019-05-21T01:01:52.717Z,100790.82
2019-05-21T01:02:28.711Z,100791.56
2019-05-21T01:03:04.707Z,100787.94
2019-05-21T01:03:43.277Z,100787.02
2019-05-21T01:04:18.380Z,100786.99
2019-05-21T01:05:00.732Z,100780.47
2019-05-21T01:05:32.105Z,100778.84
2019-05-21T01:06:08.155Z,100780.13
2019-05-21T01:06:44.341Z,100774.71
2019-05-21T01:07:20.285Z,100784.32
2019-05-21T01:07:56.203Z,100782.11
2019-05-21T01:08:32.109Z,100774.22
2019-05-21T01:09:08.460Z,100780.38
2019-05-21T01:09:44.312Z,100782.48
2019-05-21T01:10:20.187Z,100781.89
2019-05-21T01:10:56.068Z,100782.32
2019-05-21T01:11:31.947Z,100788.73
2019-05-21T01:12:07.824Z,100784.05
2019-05-21T01:12:43.719Z,100785.83
2019-05-21T01:13:19.720Z,100790.59
2019-05-21T01:13:55.611Z,100789.67
2019-05-21T01:14:31.535Z,100789.78
2019-05-21T01:15:07.476Z,100797.92
2019-05-21T01:15:43.322Z,100795.11
2019-05-21T01:16:19.194Z,100796.40
2019-05-21T01:16:55.122Z,100800.92
2019-05-21T01:17:31.755Z,100797.83
2019-05-21T01:18:07.610Z,100802.63
2019-05-21T01:18:43.756Z,100801.52
2019-05-21T01:19:19.621Z,100807.13
2019-05-21T01:19:55.534Z,100807.23
2019-05-21T01:20:31.466Z,100804.42
2019-05-21T01:21:07.997Z,100806.44
2019-05-21T01:21:43.861Z,100802.13
2019-05-21T01:22:19.832Z,100804.28
2019-05-21T01:22:55.755Z,100802.26
2019-05-21T01:23:31.718Z,100800.28
2019-05-21T01:24:07.780Z,100800.63
2019-05-21T01:24:43.679Z,100802.95
2019-05-21T01:25:21.134Z,100801.46
2019-05-21T01:25:57.103Z,100802.50
2019-05-21T01:26:33.078Z,100798.91
2019-05-21T01:27:08.963Z,100803.95
2019-05-21T01:27:44.867Z,100801.97
2019-05-21T01:28:20.743Z,100806.52
2019-05-21T01:28:56.683Z,100802.14
2019-05-21T01:29:32.617Z,100806.37
2019-05-21T01:30:08.876Z,100805.44
2019-05-21T01:30:44.743Z,100803.96
2019-05-21T01:31:20.782Z,100802.29
2019-05-21T01:31:56.679Z,100801.09
2019-05-21T01:32:32.773Z,100803.73
2019-05-21T01:33:08.811Z,100802.23
2019-05-21T01:33:44.683Z,100804.27
2019-05-21T01:34:20.743Z,100798.20
2019-05-21T01:34:56.585Z,100800.55
2019-05-21T01:35:32.490Z,100791.77
2019-05-21T01:36:08.431Z,100798.24
2019-05-21T01:36:44.316Z,100798.97
2019-05-21T01:37:20.215Z,100794.25
2019-05-21T01:37:56.161Z,100799.12
2019-05-21T01:38:32.142Z,100797.91
2019-05-21T01:39:08.756Z,100797.66
2019-05-21T01:39:44.993Z,100798.31
2019-05-21T01:40:21.548Z,100796.08
2019-05-21T01:40:57.585Z,100796.22
2019-05-21T01:41:33.707Z,100794.33
2019-05-21T01:42:09.783Z,100793.09
2019-05-21T01:42:45.650Z,100788.41
2019-05-21T01:43:21.568Z,100792.96
2019-05-21T01:43:57.410Z,100789.85
2019-05-21T01:44:33.274Z,100786.10
2019-05-21T01:45:09.303Z,100788.94
2019-05-21T01:45:45.142Z,100789.25
2019-05-21T01:46:21.047Z,100791.34
2019-05-21T01:46:56.937Z,100786.62
2019-05-21T01:47:32.945Z,100788.14
2019-05-21T01:48:08.824Z,100789.05
2019-05-21T01:48:44.743Z,100790.48
2019-05-21T01:49:20.639Z,100794.66
2019-05-21T01:49:56.520Z,100796.66
2019-05-21T01:50:32.431Z,100790.76
2019-05-21T01:51:08.316Z,100794.67
2019-05-21T01:51:44.364Z,100793.94
2019-05-21T01:52:20.275Z,100794.33
2019-05-21T01:52:56.447Z,100793.20
2019-05-21T01:53:32.352Z,100789.36
2019-05-21T01:54:08.330Z,100789.36
2019-05-21T01:54:44.197Z,100790.73
2019-05-21T01:55:20.082Z,100798.27
2019-05-21T01:55:56.018Z,100794.66
2019-05-21T01:56:31.943Z,100793.69
2019-05-21T01:57:07.965Z,100792.16
2019-05-21T01:57:43.920Z,100786.01
2019-05-21T01:58:19.810Z,100788.58
2019-05-21T01:58:55.833Z,100794.27
2019-05-21T01:59:31.866Z,100792.40
2019-05-21T02:00:07.982Z,100795.83
2019-05-21T02:00:44.127Z,100792.73
2019-05-21T02:01:20.134Z,100796.09
2019-05-21T02:01:56.250Z,100795.84
2019-05-21T02:02:32.205Z,100792.81
2019-05-21T02:03:08.147Z,100791.06
2019-05-21T02:03:44.058Z,100792.16
2019-05-21T02:04:20.100Z,100789.84
2019-05-21T02:04:55.986Z,100795.31
2019-05-21T02:05:33.522Z,100787.22
2019-05-21T02:06:09.958Z,100792.95
2019-05-21T02:06:49.202Z,100792.81
2019-05-21T02:07:23.983Z,100791.30
2019-05-21T02:08:00.576Z,100787.28
2019-05-21T02:08:37.059Z,100789.82
2019-05-21T02:09:13.903Z,100785.80
2019-05-21T02:09:59.068Z,100783.39
2019-05-21T02:10:35.861Z,100785.70
2019-05-21T02:11:12.181Z,100785.94
2019-05-21T02:11:48.474Z,100787.58
2019-05-21T02:12:25.263Z,100789.99
2019-05-21T02:13:01.805Z,100787.89
2019-05-21T02:13:41.004Z,100787.66
2019-05-21T02:14:17.312Z,100782.30
2019-05-21T02:14:53.655Z,100778.44
2019-05-21T02:15:30.101Z,100784.12
2019-05-21T02:16:06.596Z,100777.55
2019-05-21T02:16:43.344Z,100776.77
2019-05-21T02:17:20.170Z,100774.71
2019-05-21T02:17:56.448Z,100771.57
2019-05-21T02:18:32.852Z,100775.33
2019-05-21T02:19:09.441Z,100773.78
2019-05-21T02:19:46.101Z,100771.55
2019-05-21T02:20:22.368Z,100774.78
2019-05-21T02:20:58.828Z,100780.22
2019-05-21T02:21:35.482Z,100775.91
2019-05-21T02:22:12.169Z,100778.30
2019-05-21T02:22:48.869Z,100777.73
2019-05-21T02:23:25.766Z,100785.02
2019-05-21T02:24:02.462Z,100787.31
2019-05-21T02:24:39.184Z,100776.66
2019-05-21T02:25:15.647Z,100781.67
2019-05-21T02:25:52.278Z,100785.57
2019-05-21T02:26:28.972Z,100783.31
2019-05-21T02:27:05.542Z,100782.45
2019-05-21T02:27:43.321Z,100784.19
2019-05-21T02:28:19.478Z,100785.48
2019-05-21T02:28:56.071Z,100788.93
2019-05-21T02:29:32.882Z,100790.20
2019-05-21T02:30:10.300Z,100779.53
2019-05-21T02:30:46.307Z,100785.02
2019-05-21T02:31:22.157Z,100786.19
2019-05-21T02:31:58.056Z,100784.16
2019-05-21T02:32:34.031Z,100778.95
2019-05-21T02:33:09.941Z,100778.38
2019-05-21T02:33:45.932Z,100785.13
2019-05-21T02:34:21.796Z,100787.22
2019-05-21T02:34:57.678Z,100779.17
2019-05-21T02:35:51.068Z,100781.57
2019-05-21T02:36:11.372Z,100780.91
2019-05-21T02:36:47.250Z,100783.20
2019-05-21T02:37:23.227Z,100777.81
2019-05-21T02:37:59.147Z,100782.83
2019-05-21T02:38:35.078Z,100781.12
2019-05-21T02:39:11.091Z,100778.99
2019-05-21T02:39:46.957Z,100780.72
2019-05-21T02:40:23.530Z,100782.44
2019-05-21T02:40:59.425Z,100784.99
2019-05-21T02:41:35.504Z,100787.31
2019-05-21T02:42:12.126Z,100787.10
2019-05-21T02:42:49.047Z,100783.91
2019-05-21T02:43:24.976Z,100783.47
2019-05-21T02:44:01.413Z,100785.06
2019-05-21T02:44:37.763Z,100782.80
2019-05-21T02:45:15.263Z,100786.43
2019-05-21T02:45:51.146Z,100781.77
2019-05-21T02:46:27.029Z,100785.06
2019-05-21T02:47:02.879Z,100779.61
2019-05-21T02:47:39.077Z,100786.45
2019-05-21T02:48:15.015Z,100787.73
2019-05-21T02:48:50.914Z,100782.11
2019-05-21T02:49:26.808Z,100786.33
2019-05-21T02:50:02.717Z,100782.28
2019-05-21T02:50:38.604Z,100781.05
2019-05-21T02:51:15.072Z,100779.86
2019-05-21T02:51:51.212Z,100792.33
2019-05-21T02:52:27.126Z,100786.77
2019-05-21T02:53:03.046Z,100782.50
2019-05-21T02:53:38.953Z,100783.78
2019-05-21T02:54:15.621Z,100786.48
2019-05-21T02:54:51.699Z,100781.11
2019-05-21T02:55:27.589Z,100782.27
2019-05-21T02:56:03.591Z,100777.81
2019-05-21T02:56:39.502Z,100781.60
2019-05-21T02:57:15.394Z,100776.48
2019-05-21T02:57:51.222Z,100775.95
2019-05-21T02:58:27.363Z,100777.38
2019-05-21T02:59:03.261Z,100777.84
2019-05-21T02:59:40.044Z,100775.81
2019-05-21T03:00:38.236Z,100779.28
2019-05-21T03:01:30.327Z,100777.59
2019-05-21T03:02:13.299Z,100779.30
2019-05-21T03:02:49.427Z,100784.83
2019-05-21T03:03:27.447Z,100783.31
2019-05-21T03:04:03.352Z,100793.45
2019-05-21T03:04:39.235Z,100788.84
2019-05-21T03:05:15.265Z,100792.13
2019-05-21T03:05:51.312Z,100791.84
2019-05-21T03:06:27.199Z,100797.60
2019-05-21T03:07:18.298Z,100797.13
2019-05-21T03:07:54.444Z,100800.75
2019-05-21T03:08:30.456Z,100803.64
2019-05-21T03:09:07.321Z,100798.27
2019-05-21T03:09:43.265Z,100801.88
2019-05-21T03:10:19.114Z,100801.97
2019-05-21T03:10:55.275Z,100801.41
2019-05-21T03:11:31.117Z,100798.72
2019-05-21T03:12:08.510Z,100808.78
2019-05-21T03:12:44.412Z,100804.62
2019-05-21T03:13:20.378Z,100808.92
2019-05-21T03:13:56.446Z,100809.70
2019-05-21T03:14:32.416Z,100807.73
2019-05-21T03:15:08.346Z,100804.92
2019-05-21T03:15:44.328Z,100809.21
2019-05-21T03:16:20.588Z,100801.98
2019-05-21T03:16:56.465Z,100805.50
2019-05-21T03:17:32.344Z,100814.82
2019-05-21T03:18:08.662Z,100811.48
2019-05-21T03:18:44.611Z,100816.55
2019-05-21T03:19:20.471Z,100818.05
2019-05-21T03:19:56.348Z,100817.78
2019-05-21T03:20:32.309Z,100811.20
2019-05-21T03:21:08.286Z,100816.05
2019-05-21T03:21:44.344Z,100814.30
2019-05-21T03:22:20.253Z,100809.00
2019-05-21T03:22:56.990Z,100812.87
2019-05-21T03:23:32.915Z,100809.27
2019-05-21T03:24:08.790Z,100809.09
2019-05-21T03:24:44.783Z,100816.23
2019-05-21T03:25:20.742Z,100812.78
2019-05-21T03:25:56.858Z,100813.70
2019-05-21T03:26:32.754Z,100812.16
2019-05-21T03:27:08.698Z,100811.88
2019-05-21T03:27:47.679Z,100811.38
2019-05-21T03:28:23.647Z,100810.30
2019-05-21T03:28:59.558Z,100813.56
2019-05-21T03:29:35.505Z,100809.25
2019-05-21T03:30:11.355Z,100809.00
2019-05-21T03:30:47.385Z,100808.75
2019-05-21T03:31:23.314Z,100802.70
2019-05-21T03:31:59.217Z,100807.61
2019-05-21T03:32:35.291Z,100798.80
2019-05-21T03:33:11.313Z,100802.00
2019-05-21T03:33:47.269Z,100798.65
2019-05-21T03:34:23.169Z,100801.84
2019-05-21T03:34:59.073Z,100804.56
2019-05-21T03:35:35.055Z,100800.80
2019-05-21T03:36:11.106Z,100805.11
2019-05-21T03:36:47.114Z,100805.11
2019-05-21T03:37:23.007Z,100805.05
2019-05-21T03:37:59.137Z,100803.08
2019-05-21T03:38:35.164Z,100801.11
2019-05-21T03:39:11.073Z,100807.27
2019-05-21T03:39:46.987Z,100809.12
2019-05-21T03:40:22.892Z,100807.70
2019-05-21T03:41:01.270Z,100804.95
2019-05-21T03:41:37.976Z,100809.02
2019-05-21T03:42:16.825Z,100806.56
2019-05-21T03:42:52.724Z,100807.05
2019-05-21T03:43:28.620Z,100808.96
2019-05-21T03:44:04.549Z,100811.61
2019-05-21T03:44:58.252Z,100805.08
2019-05-21T03:45:18.385Z,100807.16
2019-05-21T03:45:54.408Z,100804.70
2019-05-21T03:46:30.277Z,100810.02
2019-05-21T03:47:06.158Z,100805.02
2019-05-21T03:47:42.068Z,100807.57
2019-05-21T03:48:18.060Z,100806.20
2019-05-21T03:48:53.951Z,100809.21
2019-05-21T03:49:29.818Z,100808.95
2019-05-21T03:50:05.873Z,100805.19
2019-05-21T03:50:41.739Z,100802.08
2019-05-21T03:51:17.658Z,100803.56
2019-05-21T03:51:53.566Z,100804.69
2019-05-21T03:52:29.457Z,100804.55
2019-05-21T03:53:05.321Z,100807.38
2019-05-21T03:53:41.219Z,100803.93
2019-05-21T03:54:17.127Z,100800.11
2019-05-21T03:54:53.008Z,100802.02
2019-05-21T03:55:28.948Z,100801.79
2019-05-21T03:56:04.844Z,100803.70
2019-05-21T03:56:42.383Z,100803.44
2019-05-21T03:57:18.237Z,100802.04
2019-05-21T03:57:54.239Z,100803.10
2019-05-21T03:58:30.092Z,100800.38
2019-05-21T03:59:06.095Z,100793.96
2019-05-21T03:59:41.982Z,100801.89
2019-05-21T04:00:18.039Z,100794.62
2019-05-21T04:00:54.037Z,100797.34
2019-05-21T04:01:29.895Z,100800.85
2019-05-21T04:02:08.536Z,100796.35
2019-05-21T04:02:44.517Z,100793.11
2019-05-21T04:03:20.405Z,100790.17
2019-05-21T04:03:56.324Z,100791.09
2019-05-21T04:04:32.302Z,100791.37
2019-05-21T04:05:08.379Z,100784.56
2019-05-21T04:05:44.283Z,100786.44
2019-05-21T04:06:20.160Z,100783.72
2019-05-21T04:06:56.022Z,100780.47
2019-05-21T04:07:31.878Z,100780.66
2019-05-21T04:08:07.899Z,100784.09
2019-05-21T04:08:44.385Z,100785.87
2019-05-21T04:09:20.312Z,100784.33
2019-05-21T04:09:56.175Z,100779.81
2019-05-21T04:10:32.052Z,100787.41
2019-05-21T04:11:08.066Z,100787.94
2019-05-21T04:11:45.447Z,100787.41
2019-05-21T04:12:21.446Z,100785.53
2019-05-21T04:13:09.943Z,100788.53
2019-05-21T04:13:45.891Z,100782.21
2019-05-21T04:14:34.080Z,100781.75
2019-05-21T04:15:12.420Z,100777.95
2019-05-21T04:16:07.132Z,100791.56
2019-05-21T04:16:53.784Z,100785.27
2019-05-21T04:17:48.539Z,100791.54
2019-05-21T04:18:28.243Z,100785.53
2019-05-21T04:19:10.541Z,100786.09
2019-05-21T04:19:46.490Z,100781.38
2019-05-21T04:20:22.489Z,100779.28
2019-05-21T04:20:58.357Z,100785.13
2019-05-21T04:21:34.208Z,100778.18
2019-05-21T04:22:14.493Z,100779.95
2019-05-21T04:22:55.863Z,100780.12
2019-05-21T04:23:31.794Z,100781.09
2019-05-21T04:24:09.003Z,100793.54
2019-05-21T04:24:45.478Z,100788.51
2019-05-21T04:25:21.764Z,100786.24
2019-05-21T04:25:57.795Z,100786.45
2019-05-21T04:26:33.683Z,100785.26
2019-05-21T04:27:09.578Z,100789.02
2019-05-21T04:27:45.440Z,100787.81
2019-05-21T04:28:21.409Z,100786.02
2019-05-21T04:28:57.380Z,100783.55
2019-05-21T04:29:33.248Z,100782.34
2019-05-21T04:30:11.380Z,100782.83
2019-05-21T04:30:47.028Z,100783.46
2019-05-21T04:31:22.921Z,100787.69
2019-05-21T04:31:58.766Z,100788.08
2019-05-21T04:32:34.695Z,100783.28
2019-05-21T04:33:10.580Z,100782.55
2019-05-21T04:33:46.497Z,100781.80
2019-05-21T04:34:22.572Z,100779.23
2019-05-21T04:34:58.420Z,100784.41
2019-05-21T04:35:34.336Z,100783.13
2019-05-21T04:36:10.289Z,100778.58
2019-05-21T04:36:46.201Z,100775.94
2019-05-21T04:37:22.111Z,100780.08
2019-05-21T04:37:58.087Z,100780.16
2019-05-21T04:38:33.960Z,100780.78
2019-05-21T04:39:10.121Z,100784.85
2019-05-21T04:39:46.212Z,100778.66
2019-05-21T04:40:22.293Z,100780.38
2019-05-21T04:40:58.156Z,100781.00
2019-05-21T04:41:34.151Z,100783.47
2019-05-21T04:42:10.037Z,100777.56
2019-05-21T04:42:45.936Z,100777.31
2019-05-21T04:43:21.838Z,100780.03
2019-05-21T04:43:57.738Z,100779.79
2019-05-21T04:44:33.604Z,100775.95
2019-05-21T04:45:09.750Z,100774.60
2019-05-21T04:45:45.670Z,100778.36
2019-05-21T04:46:21.595Z,100776.69
2019-05-21T04:46:57.471Z,100772.06
2019-05-21T04:47:33.407Z,100770.39
2019-05-21T04:48:09.342Z,100772.72
2019-05-21T04:48:45.247Z,100772.13
2019-05-21T04:49:22.935Z,100769.05
2019-05-21T04:49:58.893Z,100767.30
2019-05-21T04:50:34.839Z,100767.72
2019-05-21T04:51:13.759Z,100767.56
2019-05-21T04:51:48.378Z,100764.98
2019-05-21T04:52:24.276Z,100761.55
2019-05-21T04:53:00.195Z,100759.33
2019-05-21T04:53:36.127Z,100765.84
2019-05-21T04:54:11.969Z,100760.69
2019-05-21T04:54:49.379Z,100754.33
2019-05-21T04:55:25.266Z,100765.83
2019-05-21T04:56:01.130Z,100757.94
2019-05-21T04:56:37.305Z,100761.45
2019-05-21T04:57:13.382Z,100755.45
2019-05-21T04:57:50.549Z,100762.75
2019-05-21T04:58:27.901Z,100758.43
2019-05-21T04:59:03.842Z,100760.27
2019-05-21T04:59:39.850Z,100761.14
2019-05-21T05:00:15.968Z,100757.62
2019-05-21T05:00:51.840Z,100759.08
2019-05-21T05:01:27.712Z,100763.33
2019-05-21T05:02:03.627Z,100756.05
2019-05-21T05:02:42.454Z,100760.69
2019-05-21T05:03:18.300Z,100756.61
2019-05-21T05:03:54.264Z,100756.29
2019-05-21T05:04:30.324Z,100758.36
2019-05-21T05:05:06.813Z,100757.23
2019-05-21T05:05:42.738Z,100756.74
2019-05-21T05:06:18.700Z,100754.09
2019-05-21T05:06:54.655Z,100750.16
2019-05-21T05:07:30.571Z,100755.28
2019-05-21T05:08:06.497Z,100752.09
2019-05-21T05:08:42.418Z,100748.34
2019-05-21T05:09:18.283Z,100752.75
2019-05-21T05:09:54.149Z,100755.56
2019-05-21T05:10:30.062Z,100747.81
2019-05-21T05:11:05.956Z,100748.70
2019-05-21T05:11:41.839Z,100750.95
2019-05-21T05:12:17.755Z,100751.11
2019-05-21T05:12:53.674Z,100749.52
2019-05-21T05:13:29.670Z,100752.32
2019-05-21T05:14:05.549Z,100747.17
2019-05-21T05:14:41.879Z,100746.70
2019-05-21T05:15:19.293Z,100749.98
2019-05-21T05:15:55.289Z,100745.34
2019-05-21T05:16:31.202Z,100748.06
2019-05-21T05:17:07.057Z,100740.55
2019-05-21T05:17:42.937Z,100737.18
2019-05-21T05:18:18.861Z,100736.22
2019-05-21T05:18:56.334Z,100733.28
2019-05-21T05:19:32.254Z,100730.69
2019-05-21T05:20:08.350Z,100734.16
2019-05-21T05:20:46.043Z,100728.57
2019-05-21T05:21:21.897Z,100729.23
2019-05-21T05:21:57.808Z,100728.62
2019-05-21T05:22:33.700Z,100724.39
2019-05-21T05:23:09.576Z,100721.73
2019-05-21T05:23:45.464Z,100721.92
2019-05-21T05:24:21.323Z,100723.23
2019-05-21T05:24:57.287Z,100722.05
2019-05-21T05:25:33.199Z,100715.97
2019-05-21T05:26:09.113Z,100712.78
2019-05-21T05:26:45.037Z,100710.86
2019-05-21T05:27:20.913Z,100707.72
2019-05-21T05:27:56.784Z,100703.98
2019-05-21T05:28:32.710Z,100701.60
2019-05-21T05:29:08.909Z,100700.52
2019-05-21T05:29:44.813Z,100699.61
2019-05-21T05:30:20.688Z,100700.45
2019-05-21T05:30:56.596Z,100698.77
2019-05-21T05:31:32.490Z,100702.22
2019-05-21T05:32:08.378Z,100694.72
2019-05-21T05:32:44.363Z,100699.27
2019-05-21T05:33:20.240Z,100698.56
2019-05-21T05:33:56.141Z,100698.84
2019-05-21T05:34:32.166Z,100699.03
2019-05-21T05:35:08.136Z,100692.75
2019-05-21T05:35:44.045Z,100688.66
2019-05-21T05:36:20.112Z,100692.66
2019-05-21T05:36:56.164Z,100688.77
2019-05-21T05:37:43.282Z,100688.13
2019-05-21T05:38:10.850Z,100689.45
2019-05-21T05:38:47.575Z,100688.13
2019-05-21T05:39:24.184Z,100688.28
2019-05-21T05:40:00.718Z,100681.26
2019-05-21T05:40:36.598Z,100687.44
2019-05-21T05:41:12.502Z,100690.73
2019-05-21T05:41:48.404Z,100686.77
2019-05-21T05:42:24.282Z,100686.70
2019-05-21T05:43:00.199Z,100685.26
2019-05-21T05:43:36.138Z,100685.57
2019-05-21T05:44:12.101Z,100683.03
2019-05-21T05:44:48.143Z,100683.02
2019-05-21T05:45:24.028Z,100681.27
2019-05-21T05:46:00.005Z,100682.64
2019-05-21T05:46:35.946Z,100682.86
2019-05-21T05:47:11.985Z,100679.42
2019-05-21T05:47:47.861Z,100680.70
2019-05-21T05:48:23.899Z,100681.95
2019-05-21T05:49:08.631Z,100682.00
2019-05-21T05:49:50.592Z,100682.16
2019-05-21T05:50:29.597Z,100683.20
2019-05-21T05:51:06.479Z,100678.05
2019-05-21T05:51:44.239Z,100675.73
2019-05-21T05:52:20.636Z,100678.59
2019-05-21T05:52:56.781Z,100682.55
2019-05-21T05:54:00.707Z,100675.80
2019-05-21T05:54:36.817Z,100676.75
2019-05-21T05:55:12.825Z,100678.82
2019-05-21T05:55:48.808Z,100674.83
2019-05-21T05:56:25.053Z,100674.17
2019-05-21T05:57:00.938Z,100675.81
2019-05-21T05:57:36.922Z,100674.45
2019-05-21T05:58:13.068Z,100673.56
2019-05-21T05:58:48.952Z,100671.72
2019-05-21T05:59:24.966Z,100673.78
2019-05-21T06:00:01.000Z,100665.64
2019-05-21T06:00:38.477Z,100671.06
2019-05-21T06:01:14.623Z,100665.64
2019-05-21T06:01:50.542Z,100670.02
2019-05-21T06:02:26.524Z,100669.39
2019-05-21T06:03:02.480Z,100669.71
2019-05-21T06:03:42.318Z,100662.38
2019-05-21T06:04:18.160Z,100665.88
2019-05-21T06:04:54.035Z,100663.51
2019-05-21T06:05:29.887Z,100658.49
2019-05-21T06:06:05.971Z,100660.65
2019-05-21T06:06:41.882Z,100661.28
2019-05-21T06:07:17.886Z,100663.60
2019-05-21T06:07:59.800Z,100660.33
2019-05-21T06:08:32.538Z,100660.33
2019-05-21T06:09:08.939Z,100655.30
2019-05-21T06:09:44.833Z,100663.99
2019-05-21T06:10:21.237Z,100655.22
2019-05-21T06:10:57.236Z,100658.49
2019-05-21T06:11:33.102Z,100659.85
2019-05-21T06:12:09.163Z,100653.94
2019-05-21T06:12:45.138Z,100656.09
2019-05-21T06:13:21.022Z,100656.97
2019-05-21T06:13:56.904Z,100652.90
2019-05-21T06:14:32.806Z,100656.09
2019-05-21T06:15:08.813Z,100655.13
2019-05-21T06:15:44.879Z,100651.94
2019-05-21T06:16:21.416Z,100651.30
2019-05-21T06:16:57.316Z,100650.89
2019-05-21T06:17:33.254Z,100655.38
2019-05-21T06:18:09.368Z,100649.07
2019-05-21T06:18:45.244Z,100652.58
2019-05-21T06:19:21.123Z,100647.23
2019-05-21T06:19:57.248Z,100648.83
2019-05-21T06:20:33.174Z,100647.72
2019-05-21T06:21:09.175Z,100646.36
2019-05-21T06:21:45.072Z,100644.20
2019-05-21T06:22:20.931Z,100641.32
2019-05-21T06:22:56.830Z,100642.44
2019-05-21T06:23:32.731Z,100638.61
2019-05-21T06:24:08.697Z,100641.01
2019-05-21T06:24:44.547Z,100645.31
2019-05-21T06:25:20.901Z,100643.55
2019-05-21T06:25:57.285Z,100648.01
2019-05-21T06:26:33.356Z,100646.41
2019-05-21T06:27:09.196Z,100645.05
2019-05-21T06:27:45.089Z,100642.97
2019-05-21T06:28:20.946Z,100646.17
2019-05-21T06:28:56.828Z,100642.09
2019-05-21T06:29:33.378Z,100641.86
2019-05-21T06:30:09.352Z,100640.50
2019-05-21T06:30:45.230Z,100643.14
2019-05-21T06:31:21.127Z,100639.63
2019-05-21T06:31:56.983Z,100637.78
2019-05-21T06:32:32.867Z,100639.22
2019-05-21T06:33:08.884Z,100639.77
2019-05-21T06:33:44.773Z,100642.73
2019-05-21T06:34:21.202Z,100640.89
2019-05-21T06:34:57.879Z,100635.70
2019-05-21T06:35:33.775Z,100634.70
2019-05-21T06:36:09.643Z,100636.06
2019-05-21T06:36:45.610Z,100626.40
2019-05-21T06:37:21.484Z,100635.20
2019-05-21T06:37:57.647Z,100634.41
2019-05-21T06:38:33.681Z,100637.81
2019-05-21T06:39:09.961Z,100636.45
2019-05-21T06:39:45.798Z,100638.69
2019-05-21T06:40:21.895Z,100638.48
2019-05-21T06:40:57.794Z,100639.28
2019-05-21T06:41:33.678Z,100637.51
2019-05-21T06:42:09.605Z,100628.58
2019-05-21T06:42:45.582Z,100631.05
2019-05-21T06:43:21.500Z,100632.40
2019-05-21T06:43:57.434Z,100626.18
2019-05-21T06:44:33.347Z,100633.44
2019-05-21T06:45:09.639Z,100634.17
2019-05-21T06:45:45.512Z,100629.79
2019-05-21T06:46:21.352Z,100630.55
2019-05-21T06:46:57.267Z,100628.95
2019-05-21T06:47:33.155Z,100629.44
2019-05-21T06:48:09.600Z,100625.61
2019-05-21T06:48:45.569Z,100620.12
2019-05-21T06:49:21.958Z,100625.23
2019-05-21T06:49:57.830Z,100626.83
2019-05-21T06:50:37.274Z,100621.92
2019-05-21T06:51:11.621Z,100621.05
2019-05-21T06:51:47.449Z,100623.27
2019-05-21T06:52:23.401Z,100626.47
2019-05-21T06:52:59.265Z,100626.47
2019-05-21T06:53:35.248Z,100627.59
2019-05-21T06:54:11.117Z,100629.85
2019-05-21T06:54:46.998Z,100633.36
2019-05-21T06:55:22.954Z,100632.01
2019-05-21T06:55:58.820Z,100633.13
2019-05-21T06:56:34.651Z,100628.71
2019-05-21T06:57:10.602Z,100628.44
2019-05-21T06:57:46.564Z,100629.38
2019-05-21T06:58:22.456Z,100629.20
2019-05-21T06:58:58.404Z,100631.42
2019-05-21T06:59:34.312Z,100625.03
2019-05-21T07:00:11.779Z,100627.25
2019-05-21T07:00:47.924Z,100623.57
2019-05-21T07:01:28.802Z,100630.70
2019-05-21T07:02:01.613Z,100630.83
2019-05-21T07:02:37.681Z,100628.74
2019-05-21T07:03:13.615Z,100630.72